Pagina principale
METAR-TAF:

METAR-TAF

Aeroporti :

Aeroporto di Pescara

Pescara, Italia

latitudine: 42-26N, longitudine: 014-12E, altezza: 10 m

Osservazione

Il bollettino è stato emesso 1 ora e 23 minuti fa, alle 12:50 UTC
Vento 8 kt da nord-est
Temperature 31°C
Umidità 55%
Pressione 1016 hPa
Visibilità 10 km o più
nessuna nube inferiore a 1500 m e nessun cumulonembo

METAR: LIBP 211250Z 04008KT CAVOK 31/21 Q1016

Ora: 16:13 (14:13 UTC)

Previsione

Il bollettino è stato emesso 3 ore e 13 minuti fa, alle 11:00 UTC
Previsione valida dal 21 alle 12 UTC al 22 alle 12 UTC
Vento 10 kt da nord-est
Visibilità 10 km o più
nessuna nube inferiore a 1500 m e nessun cumulonembo
Evoluzione graduale
dal 21 alle 17 UTC al 21 alle 19 UTC
Vento 4 kt da direzioni variabili
Evoluzione graduale
dal 22 alle 10 UTC al 22 alle 12 UTC
Vento 10 kt da nord/nord-est

TAF: LIBP 211100Z 2112/2212 05010KT CAVOK BECMG 2117/2119 VRB04KT BECMG 2210/2212 02010KT

Osservazioni e previsioni meteorologiche di più di 4000 aeroporti (messaggi METAR e TAF).

Le stazioni disponibili sono rappresentate dai dischi gialli e rossi sulla carta.

Puntare il mouse per vedere il nome della stazione.

Clicca sopra per visualizzare le osservazioni e previsioni meteorologiche.

Per cambiare la mappa : fare clic sui pulsanti verdi con una croce nera per ingrandire, il pulsante verde con un trattino per diminuire, o sulla freccia verde per le mappe adiacenti.


METAR-TAF: